Aviation Digital Data Service (ADDS)

Output produced by METARs form (1752 UTC 24 March 2017)
found at http://www.aviationweather.gov/adds/metars/
 
OOSA 241650Z 18007KT 9999 SCT025 27/22 Q1013 NOSIG
TAF OOSA 241740Z 2418/2524 18012KT 9999 SCT025
       
OOMS 241650Z 03011KT 8000 FEW025 BKN100 25/19 Q1013 NOSIG
TAF OOMS 241700Z 2418/2600 16005KT 8000 FEW025 
     PROB30 
     TEMPO 2418/2600 TSRA SCT025 FEW030CB 
     BECMG 2506/2508 06012KT 
     PROB30 
     TEMPO 2508/2512 TSRA SCT025 FEW030CB